createdAt,value
2018-12-14T00:00:31.410Z,0
2018-12-14T00:01:32.113Z,0
2018-12-14T00:02:32.834Z,0
2018-12-14T00:03:33.560Z,0
2018-12-14T00:04:34.255Z,0
2018-12-14T00:05:34.981Z,0
2018-12-14T00:06:35.677Z,0
2018-12-14T00:07:36.389Z,0
2018-12-14T00:08:37.131Z,0
2018-12-14T00:09:37.854Z,0
2018-12-14T00:10:38.563Z,0
2018-12-14T00:11:45.416Z,0
2018-12-14T00:12:39.978Z,0
2018-12-14T00:13:40.786Z,0
2018-12-14T00:14:41.791Z,0
2018-12-14T00:15:42.504Z,0
2018-12-14T00:16:43.217Z,0
2018-12-14T00:17:43.924Z,0
2018-12-14T00:18:44.641Z,0
2018-12-14T00:19:45.363Z,0
2018-12-14T00:20:46.067Z,0
2018-12-14T00:21:46.793Z,0
2018-12-14T00:22:47.525Z,0
2018-12-14T00:23:48.245Z,0
2018-12-14T00:24:48.959Z,0
2018-12-14T00:25:49.730Z,0
2018-12-14T00:26:50.605Z,0
2018-12-14T00:27:51.327Z,0
2018-12-14T00:28:52.301Z,0
2018-12-14T00:29:52.995Z,0
2018-12-14T00:30:53.706Z,0
2018-12-14T00:31:54.562Z,0
2018-12-14T00:32:55.280Z,0
2018-12-14T00:33:55.999Z,0
2018-12-14T00:34:57.098Z,0
2018-12-14T00:35:57.928Z,0
2018-12-14T00:36:58.666Z,0
2018-12-14T00:37:59.364Z,0
2018-12-14T00:39:00.088Z,0
2018-12-14T00:40:00.891Z,0
2018-12-14T00:41:01.614Z,0
2018-12-14T00:42:02.360Z,0
2018-12-14T00:43:03.096Z,0
2018-12-14T00:44:03.819Z,0
2018-12-14T00:45:04.539Z,0
2018-12-14T00:46:05.516Z,0
2018-12-14T00:47:07.393Z,0
2018-12-14T00:48:06.964Z,0
2018-12-14T00:49:07.670Z,0
2018-12-14T00:50:08.385Z,0
2018-12-14T00:51:09.364Z,0
2018-12-14T00:52:10.090Z,0
2018-12-14T00:53:10.851Z,0
2018-12-14T00:54:11.569Z,0
2018-12-14T00:55:12.284Z,0
2018-12-14T00:56:12.996Z,0
2018-12-14T00:57:13.720Z,0
2018-12-14T00:58:14.474Z,0
2018-12-14T00:59:15.190Z,0
2018-12-14T01:00:15.912Z,0
2018-12-14T01:01:16.907Z,0
2018-12-14T01:02:17.612Z,0
2018-12-14T01:03:18.413Z,0
2018-12-14T01:04:19.121Z,0
2018-12-14T01:05:19.831Z,0
2018-12-14T01:06:20.551Z,0
2018-12-14T01:07:21.262Z,0
2018-12-14T01:08:21.987Z,0
2018-12-14T01:09:22.745Z,0
2018-12-14T01:10:23.449Z,0
2018-12-14T01:11:24.171Z,0
2018-12-14T01:12:24.877Z,0
2018-12-14T01:13:25.587Z,0
2018-12-14T01:14:26.311Z,0
2018-12-14T01:15:27.014Z,0
2018-12-14T01:16:27.964Z,0
2018-12-14T01:17:28.675Z,0
2018-12-14T01:18:29.393Z,0
2018-12-14T01:19:30.102Z,0
2018-12-14T01:20:30.813Z,0
2018-12-14T01:21:31.524Z,0
2018-12-14T01:22:32.229Z,0
2018-12-14T01:23:32.948Z,0
2018-12-14T01:24:33.665Z,0
2018-12-14T01:25:34.374Z,0
2018-12-14T01:26:35.083Z,0
2018-12-14T01:27:35.793Z,0
2018-12-14T01:28:36.550Z,0
2018-12-14T01:29:37.250Z,0
2018-12-14T01:30:37.967Z,0
2018-12-14T01:31:38.678Z,0
2018-12-14T01:32:39.388Z,0
2018-12-14T01:33:40.121Z,0
2018-12-14T01:34:40.824Z,0
2018-12-14T01:35:41.550Z,0
2018-12-14T01:36:42.257Z,0
2018-12-14T01:37:42.971Z,0
2018-12-14T01:38:43.692Z,0
2018-12-14T01:39:44.413Z,0
2018-12-14T01:40:45.116Z,0
2018-12-14T01:41:45.835Z,0
2018-12-14T01:42:46.542Z,0
2018-12-14T01:43:47.260Z,0
2018-12-14T01:44:47.980Z,0
2018-12-14T01:45:48.736Z,0
2018-12-14T01:46:49.447Z,0
2018-12-14T01:47:50.148Z,0
2018-12-14T01:48:50.860Z,0
2018-12-14T01:49:51.564Z,0
2018-12-14T01:50:52.373Z,0
2018-12-14T01:51:53.083Z,0
2018-12-14T01:52:53.807Z,0
2018-12-14T01:53:54.517Z,0
2018-12-14T01:54:55.229Z,0
2018-12-14T01:55:56.044Z,0
2018-12-14T01:56:56.757Z,0
2018-12-14T01:57:57.481Z,0
2018-12-14T01:58:58.190Z,0
2018-12-14T01:59:58.906Z,0
2018-12-14T02:00:59.602Z,0
2018-12-14T02:02:00.320Z,0
2018-12-14T02:03:01.085Z,0
2018-12-14T02:04:01.787Z,0
2018-12-14T02:05:02.499Z,0
2018-12-14T02:06:03.209Z,0
2018-12-14T02:07:03.919Z,0
2018-12-14T02:08:04.695Z,0
2018-12-14T02:09:05.396Z,0
2018-12-14T02:10:06.110Z,0
2018-12-14T02:11:06.807Z,0
2018-12-14T02:12:11.304Z,0
2018-12-14T02:13:08.237Z,0
2018-12-14T02:14:08.951Z,0
2018-12-14T02:15:09.657Z,0
2018-12-14T02:16:10.414Z,0
2018-12-14T02:17:11.070Z,0
2018-12-14T02:18:11.771Z,0
2018-12-14T02:19:12.726Z,0
2018-12-14T02:20:13.444Z,0
2018-12-14T02:21:14.156Z,0
2018-12-14T02:22:14.872Z,0
2018-12-14T02:23:15.592Z,0
2018-12-14T02:24:16.303Z,0
2018-12-14T02:25:17.007Z,0
2018-12-14T02:26:17.735Z,0
2018-12-14T02:27:18.434Z,0
2018-12-14T02:28:19.138Z,0
2018-12-14T02:29:19.903Z,0
2018-12-14T02:30:20.620Z,0
2018-12-14T02:31:21.323Z,0
2018-12-14T02:32:22.032Z,0
2018-12-14T02:33:22.996Z,0
2018-12-14T02:34:23.867Z,0
2018-12-14T02:35:24.571Z,0
2018-12-14T02:36:25.532Z,0
2018-12-14T02:37:26.244Z,0
2018-12-14T02:38:26.966Z,0
2018-12-14T02:39:27.659Z,0
2018-12-14T02:40:28.364Z,0
2018-12-14T02:41:29.086Z,0
2018-12-14T02:42:29.795Z,0
2018-12-14T02:43:30.500Z,0
2018-12-14T02:44:31.213Z,0
2018-12-14T02:45:31.988Z,0
2018-12-14T02:46:32.694Z,0
2018-12-14T02:47:33.421Z,0
2018-12-14T02:48:34.139Z,0
2018-12-14T02:49:34.901Z,0
2018-12-14T02:50:35.621Z,0
2018-12-14T02:51:36.323Z,0
2018-12-14T02:52:37.035Z,0
2018-12-14T02:53:37.994Z,0
2018-12-14T02:54:38.700Z,0
2018-12-14T02:55:39.410Z,0
2018-12-14T02:56:40.131Z,0
2018-12-14T02:57:40.843Z,0
2018-12-14T02:58:41.570Z,0
2018-12-14T02:59:42.284Z,0
2018-12-14T03:00:42.987Z,0
2018-12-14T03:01:43.695Z,0
2018-12-14T03:02:44.405Z,0
2018-12-14T03:03:45.381Z,0
2018-12-14T03:04:46.094Z,0
2018-12-14T03:05:46.811Z,0
2018-12-14T03:06:47.524Z,0
2018-12-14T03:07:48.227Z,0
2018-12-14T03:08:48.939Z,0
2018-12-14T03:09:49.659Z,0
2018-12-14T03:10:50.381Z,0
2018-12-14T03:11:51.089Z,0
2018-12-14T03:12:51.797Z,0
2018-12-14T03:13:52.504Z,0
2018-12-14T03:14:53.211Z,0
2018-12-14T03:15:53.923Z,0
2018-12-14T03:16:54.684Z,0
2018-12-14T03:17:55.662Z,0
2018-12-14T03:18:56.393Z,0
2018-12-14T03:19:57.109Z,0
2018-12-14T03:20:57.818Z,0
2018-12-14T03:21:58.521Z,0
2018-12-14T03:22:59.232Z,0
2018-12-14T03:23:59.962Z,0
2018-12-14T03:25:00.662Z,0
2018-12-14T03:26:01.379Z,0
2018-12-14T03:27:02.089Z,0
2018-12-14T03:28:02.796Z,0
2018-12-14T03:29:03.503Z,0
2018-12-14T03:30:04.219Z,0
2018-12-14T03:31:04.926Z,0
2018-12-14T03:32:05.632Z,0
2018-12-14T03:33:06.337Z,0
2018-12-14T03:34:07.057Z,0
2018-12-14T03:35:07.876Z,0
2018-12-14T03:36:08.586Z,0
2018-12-14T03:37:09.296Z,0
2018-12-14T03:38:10.016Z,0
2018-12-14T03:39:10.729Z,0
2018-12-14T03:40:11.481Z,0
2018-12-14T03:41:12.204Z,0
2018-12-14T03:42:12.909Z,0
2018-12-14T03:43:13.625Z,0
2018-12-14T03:44:14.338Z,0
2018-12-14T03:45:15.059Z,0
2018-12-14T03:46:15.765Z,0
2018-12-14T03:47:16.528Z,0
2018-12-14T03:48:17.238Z,0
2018-12-14T03:49:17.952Z,0
2018-12-14T03:50:18.657Z,0
2018-12-14T03:51:19.378Z,0
2018-12-14T03:52:20.084Z,0
2018-12-14T03:53:20.809Z,0
2018-12-14T03:54:21.529Z,0
2018-12-14T03:55:22.257Z,0
2018-12-14T03:56:22.963Z,0
2018-12-14T03:57:24.014Z,0
2018-12-14T03:58:24.732Z,0
2018-12-14T03:59:25.441Z,0
2018-12-14T04:00:26.182Z,0
2018-12-14T04:01:26.892Z,0
2018-12-14T04:02:27.603Z,0
2018-12-14T04:03:28.323Z,0
2018-12-14T04:04:29.028Z,0
2018-12-14T04:05:29.747Z,0
2018-12-14T04:06:30.459Z,0
2018-12-14T04:07:31.172Z,0
2018-12-14T04:08:31.882Z,0
2018-12-14T04:09:32.835Z,0
2018-12-14T04:10:33.547Z,0
2018-12-14T04:11:34.256Z,0
2018-12-14T04:12:41.357Z,0
2018-12-14T04:13:35.714Z,0
2018-12-14T04:14:36.416Z,0
2018-12-14T04:15:37.131Z,0
2018-12-14T04:16:37.852Z,0
2018-12-14T04:17:38.559Z,0
2018-12-14T04:18:39.267Z,0
2018-12-14T04:19:40.038Z,0
2018-12-14T04:20:40.748Z,0
2018-12-14T04:21:41.478Z,0
2018-12-14T04:22:42.224Z,0
2018-12-14T04:23:42.934Z,0
2018-12-14T04:24:43.655Z,0
2018-12-14T04:25:44.366Z,0
2018-12-14T04:26:45.335Z,0
2018-12-14T04:27:46.040Z,0
2018-12-14T04:28:46.750Z,0
2018-12-14T04:29:47.461Z,0
2018-12-14T04:30:48.165Z,0
2018-12-14T04:31:48.872Z,0
2018-12-14T04:32:49.581Z,0
2018-12-14T04:33:50.291Z,0
2018-12-14T04:34:51.290Z,0
2018-12-14T04:35:52.021Z,0
2018-12-14T04:36:52.735Z,0
2018-12-14T04:37:53.474Z,0
2018-12-14T04:38:54.191Z,0
2018-12-14T04:39:54.922Z,0
2018-12-14T04:40:55.615Z,0
2018-12-14T04:41:56.333Z,0
2018-12-14T04:42:57.044Z,0
2018-12-14T04:43:57.752Z,0
2018-12-14T04:44:58.462Z,0
2018-12-14T04:45:59.178Z,0
2018-12-14T04:46:59.948Z,0
2018-12-14T04:48:00.657Z,0
2018-12-14T04:49:01.379Z,0
2018-12-14T04:50:02.114Z,0
2018-12-14T04:51:02.801Z,0
2018-12-14T04:52:03.511Z,0
2018-12-14T04:53:04.222Z,0
2018-12-14T04:54:04.950Z,0
2018-12-14T04:55:05.903Z,0
2018-12-14T04:56:06.607Z,0
2018-12-14T04:57:07.364Z,0
2018-12-14T04:58:08.106Z,0
2018-12-14T04:59:08.822Z,0
2018-12-14T05:00:09.535Z,0
2018-12-14T05:01:10.240Z,0
2018-12-14T05:02:11.012Z,0
2018-12-14T05:03:11.726Z,0
2018-12-14T05:04:12.446Z,0
2018-12-14T05:05:13.151Z,0
2018-12-14T05:06:13.858Z,0
2018-12-14T05:07:14.568Z,0
2018-12-14T05:08:15.518Z,0
2018-12-14T05:09:16.232Z,0
2018-12-14T05:10:16.943Z,0
2018-12-14T05:11:17.645Z,0
2018-12-14T05:12:18.366Z,0
2018-12-14T05:13:19.062Z,0
2018-12-14T05:14:19.786Z,0
2018-12-14T05:15:20.748Z,0
2018-12-14T05:16:21.464Z,0
2018-12-14T05:17:22.165Z,0
2018-12-14T05:18:22.988Z,0
2018-12-14T05:19:23.710Z,0
2018-12-14T05:20:24.420Z,0
2018-12-14T05:21:25.126Z,0
2018-12-14T05:22:25.837Z,0
2018-12-14T05:23:26.698Z,0
2018-12-14T05:24:27.414Z,0
2018-12-14T05:25:28.129Z,0
2018-12-14T05:26:29.060Z,0
2018-12-14T05:27:29.546Z,0
2018-12-14T05:28:30.418Z,0
2018-12-14T05:29:31.115Z,0
2018-12-14T05:30:32.067Z,0
2018-12-14T05:31:32.785Z,0
2018-12-14T05:32:33.492Z,0
2018-12-14T05:33:34.212Z,0
2018-12-14T05:34:34.913Z,0
2018-12-14T05:35:35.920Z,0
2018-12-14T05:36:36.639Z,0
2018-12-14T05:37:37.349Z,0
2018-12-14T05:38:38.057Z,0
2018-12-14T05:39:38.774Z,0
2018-12-14T05:40:39.530Z,0
2018-12-14T05:41:40.243Z,0
2018-12-14T05:42:40.970Z,0
2018-12-14T05:43:41.677Z,0
2018-12-14T05:44:42.382Z,0
2018-12-14T05:45:43.142Z,0
2018-12-14T05:46:43.853Z,0
2018-12-14T05:47:44.806Z,0
2018-12-14T05:48:45.512Z,0
2018-12-14T05:49:46.226Z,0
2018-12-14T05:50:47.046Z,0
2018-12-14T05:51:47.682Z,0
2018-12-14T05:52:48.401Z,0
2018-12-14T05:53:49.111Z,0
2018-12-14T05:54:49.822Z,0
2018-12-14T05:55:50.587Z,0
2018-12-14T05:56:51.295Z,0
2018-12-14T05:57:52.013Z,0
2018-12-14T05:58:52.720Z,0
2018-12-14T05:59:53.436Z,0
2018-12-14T06:00:54.158Z,0
2018-12-14T06:01:54.862Z,0
2018-12-14T06:02:55.577Z,0
2018-12-14T06:03:56.299Z,0
2018-12-14T06:04:57.019Z,0
2018-12-14T06:05:57.731Z,0
2018-12-14T06:06:58.438Z,0
2018-12-14T06:07:59.211Z,0
2018-12-14T06:08:59.917Z,0
2018-12-14T06:10:00.625Z,0
2018-12-14T06:11:01.341Z,0
2018-12-14T06:12:02.204Z,0
2018-12-14T06:13:08.902Z,0
2018-12-14T06:14:03.867Z,0
2018-12-14T06:15:04.581Z,0
2018-12-14T06:16:05.299Z,0
2018-12-14T06:17:06.154Z,0
2018-12-14T06:18:06.869Z,0
2018-12-14T06:19:07.597Z,0
2018-12-14T06:20:08.306Z,0
2018-12-14T06:21:09.015Z,0
2018-12-14T06:22:09.733Z,0
2018-12-14T06:23:10.600Z,0
2018-12-14T06:24:11.317Z,0
2018-12-14T06:25:12.023Z,0
2018-12-14T06:26:12.727Z,0
2018-12-14T06:27:13.447Z,0
2018-12-14T06:28:14.158Z,0
2018-12-14T06:29:14.869Z,0
2018-12-14T06:30:15.592Z,0
2018-12-14T06:31:16.295Z,0
2018-12-14T06:32:17.178Z,0
2018-12-14T06:33:17.895Z,0
2018-12-14T06:34:18.622Z,0
2018-12-14T06:35:19.325Z,0
2018-12-14T06:36:20.035Z,0
2018-12-14T06:37:20.802Z,0
2018-12-14T06:38:21.542Z,0
2018-12-14T06:39:22.258Z,0
2018-12-14T06:40:22.979Z,0
2018-12-14T06:41:23.688Z,0
2018-12-14T06:42:24.506Z,0
2018-12-14T06:43:25.251Z,0
2018-12-14T06:44:26.415Z,4
2018-12-14T06:45:27.220Z,4
2018-12-14T06:46:27.950Z,0
2018-12-14T06:47:29.272Z,4
2018-12-14T06:48:29.999Z,4
2018-12-14T06:49:30.721Z,4
2018-12-14T06:50:31.435Z,4
2018-12-14T06:51:32.166Z,8
2018-12-14T06:52:32.878Z,8
2018-12-14T06:53:33.588Z,8
2018-12-14T06:54:34.291Z,8
2018-12-14T06:55:35.014Z,8
2018-12-14T06:56:36.019Z,12
2018-12-14T06:57:36.726Z,16
2018-12-14T06:58:37.438Z,16
2018-12-14T06:59:38.144Z,16
2018-12-14T07:00:38.854Z,24
2018-12-14T07:01:39.580Z,28
2018-12-14T07:02:40.285Z,28
2018-12-14T07:03:41.003Z,36
2018-12-14T07:04:41.727Z,40
2018-12-14T07:05:42.434Z,52
2018-12-14T07:06:43.149Z,56
2018-12-14T07:07:43.916Z,68
2018-12-14T07:08:44.615Z,72
2018-12-14T07:09:45.331Z,80
2018-12-14T07:10:46.046Z,92
2018-12-14T07:11:46.759Z,100
2018-12-14T07:12:47.481Z,104
2018-12-14T07:13:48.187Z,120
2018-12-14T07:14:48.899Z,136
2018-12-14T07:15:49.619Z,156
2018-12-14T07:16:50.329Z,176
2018-12-14T07:17:51.043Z,196
2018-12-14T07:18:51.753Z,220
2018-12-14T07:19:52.557Z,236
2018-12-14T07:20:53.275Z,256
2018-12-14T07:21:53.993Z,276
2018-12-14T07:22:54.712Z,296
2018-12-14T07:23:55.421Z,324
2018-12-14T07:24:56.139Z,344
2018-12-14T07:25:56.846Z,372
2018-12-14T07:26:57.566Z,400
2018-12-14T07:27:58.287Z,428
2018-12-14T07:28:59.012Z,468
2018-12-14T07:29:59.734Z,516
2018-12-14T07:31:00.441Z,560
2018-12-14T07:32:01.156Z,600
2018-12-14T07:33:01.865Z,632
2018-12-14T07:34:02.601Z,636
2018-12-14T07:35:03.316Z,644
2018-12-14T07:36:04.044Z,656
2018-12-14T07:37:05.011Z,680
2018-12-14T07:38:05.719Z,720
2018-12-14T07:39:06.435Z,760
2018-12-14T07:40:07.143Z,800
2018-12-14T07:41:07.867Z,836
2018-12-14T07:42:08.592Z,888
2018-12-14T07:43:09.317Z,952
2018-12-14T07:44:10.041Z,1000
2018-12-14T07:45:10.756Z,1040
2018-12-14T07:46:11.514Z,1080
2018-12-14T07:47:12.232Z,1140
2018-12-14T07:48:12.987Z,1216
2018-12-14T07:49:13.947Z,1260
2018-12-14T07:50:14.659Z,1304
2018-12-14T07:51:15.380Z,1364
2018-12-14T07:52:16.102Z,1384
2018-12-14T07:53:16.820Z,1388
2018-12-14T07:54:17.534Z,1464
2018-12-14T07:55:18.245Z,1564
2018-12-14T07:56:18.971Z,1692
2018-12-14T07:57:19.686Z,1796
2018-12-14T07:58:20.464Z,1896
2018-12-14T07:59:21.154Z,1988
2018-12-14T08:00:21.879Z,1992
2018-12-14T08:01:22.604Z,2068
2018-12-14T08:02:23.310Z,2052
2018-12-14T08:03:24.081Z,2028
2018-12-14T08:04:24.786Z,2056
2018-12-14T08:05:25.495Z,2156
2018-12-14T08:06:26.454Z,2152
2018-12-14T08:07:27.154Z,2224
2018-12-14T08:08:27.916Z,2380
2018-12-14T08:09:28.627Z,2468
2018-12-14T08:10:29.344Z,2484
2018-12-14T08:11:30.065Z,2532
2018-12-14T08:12:30.782Z,2712
2018-12-14T08:13:34.772Z,2884
2018-12-14T08:14:32.508Z,3020
2018-12-14T08:15:33.214Z,3136
2018-12-14T08:16:34.016Z,3364
2018-12-14T08:17:34.731Z,3492
2018-12-14T08:18:35.541Z,3436
2018-12-14T08:19:36.264Z,3324
2018-12-14T08:20:36.985Z,3452
2018-12-14T08:21:37.687Z,3820
2018-12-14T08:22:38.402Z,4092
2018-12-14T08:23:39.273Z,4016
2018-12-14T08:24:39.990Z,4212
2018-12-14T08:25:40.713Z,4520
2018-12-14T08:26:41.440Z,4716
2018-12-14T08:27:42.156Z,4756
2018-12-14T08:28:42.919Z,4924
2018-12-14T08:29:44.250Z,4992
2018-12-14T08:30:45.489Z,4996
2018-12-14T08:31:46.340Z,4920
2018-12-14T08:32:47.476Z,4844
2018-12-14T08:33:48.192Z,4960
2018-12-14T08:34:51.221Z,4912
2018-12-14T08:35:49.851Z,4716
2018-12-14T08:36:50.576Z,4332
2018-12-14T08:37:51.701Z,3984
2018-12-14T08:38:52.425Z,3904
2018-12-14T08:39:53.178Z,3852
2018-12-14T08:40:53.898Z,3848
2018-12-14T08:41:54.625Z,3852
2018-12-14T08:42:55.432Z,3844
2018-12-14T08:43:56.294Z,3864
2018-12-14T08:44:57.313Z,3932
2018-12-14T08:45:58.064Z,4032
2018-12-14T08:46:58.788Z,3996
2018-12-14T08:47:59.512Z,4068
2018-12-14T08:49:00.222Z,4172
2018-12-14T08:50:01.004Z,4252
2018-12-14T08:51:01.712Z,4168
2018-12-14T08:52:02.758Z,4060
2018-12-14T08:53:03.696Z,4136
2018-12-14T08:54:04.414Z,4304
2018-12-14T08:55:05.176Z,4332
2018-12-14T08:56:05.893Z,4168
2018-12-14T08:57:06.612Z,4096
2018-12-14T08:58:07.334Z,4120
2018-12-14T08:59:08.046Z,4160
2018-12-14T09:00:08.772Z,4144
2018-12-14T09:01:09.493Z,4180
2018-12-14T09:02:10.366Z,4228
2018-12-14T09:03:11.088Z,4264
2018-12-14T09:04:11.777Z,4368
2018-12-14T09:05:12.542Z,4652
2018-12-14T09:06:13.270Z,4712
2018-12-14T09:07:14.007Z,4632
2018-12-14T09:08:14.715Z,4824
2018-12-14T09:09:15.423Z,4968
2018-12-14T09:10:16.137Z,4940
2018-12-14T09:11:16.853Z,4924
2018-12-14T09:12:17.620Z,4948
2018-12-14T09:13:18.341Z,5108
2018-12-14T09:14:19.054Z,5680
2018-12-14T09:15:19.775Z,6040
2018-12-14T09:16:20.489Z,5260
2018-12-14T09:17:21.247Z,5012
2018-12-14T09:18:21.979Z,4868
2018-12-14T09:19:22.712Z,4924
2018-12-14T09:20:23.423Z,5008
2018-12-14T09:21:24.146Z,5216
2018-12-14T09:22:24.855Z,5720
2018-12-14T09:23:25.590Z,6768
2018-12-14T09:24:26.719Z,6192
2018-12-14T09:25:27.707Z,5048
2018-12-14T09:26:28.802Z,4856
2018-12-14T09:27:29.581Z,4828
2018-12-14T09:28:30.297Z,4856
2018-12-14T09:29:31.011Z,4812
2018-12-14T09:30:31.810Z,4960
2018-12-14T09:31:32.811Z,4764
2018-12-14T09:32:33.516Z,5024
2018-12-14T09:33:34.253Z,5020
2018-12-14T09:34:34.961Z,5292
2018-12-14T09:35:35.737Z,5772
2018-12-14T09:36:36.459Z,6332
2018-12-14T09:37:37.168Z,7672
2018-12-14T09:38:37.884Z,8156
2018-12-14T09:39:38.602Z,6248
2018-12-14T09:40:39.330Z,5796
2018-12-14T09:41:40.045Z,6068
2018-12-14T09:42:40.758Z,4852
2018-12-14T09:43:41.475Z,4360
2018-12-14T09:44:42.187Z,4444
2018-12-14T09:45:42.902Z,4832
2018-12-14T09:46:43.621Z,4940
2018-12-14T09:47:44.334Z,4764
2018-12-14T09:48:45.145Z,5244
2018-12-14T09:49:45.858Z,5564
2018-12-14T09:50:46.581Z,6004
2018-12-14T09:51:47.291Z,5436
2018-12-14T09:52:47.999Z,4512
2018-12-14T09:53:48.714Z,4572
2018-12-14T09:54:49.428Z,5872
2018-12-14T09:55:50.148Z,6736
2018-12-14T09:56:50.892Z,5476
2018-12-14T09:57:51.603Z,4728
2018-12-14T09:58:52.469Z,4704
2018-12-14T09:59:53.206Z,5320
2018-12-14T10:00:53.953Z,6108
2018-12-14T10:01:54.953Z,5940
2018-12-14T10:02:55.657Z,5588
2018-12-14T10:03:56.425Z,6360
2018-12-14T10:04:57.148Z,7152
2018-12-14T10:05:57.872Z,7728
2018-12-14T10:06:58.594Z,6928
2018-12-14T10:07:59.309Z,6052
2018-12-14T10:09:00.124Z,6996
2018-12-14T10:10:00.835Z,8420
2018-12-14T10:11:01.556Z,10100
2018-12-14T10:12:02.274Z,11864
2018-12-14T10:13:02.988Z,11684
2018-12-14T10:14:03.828Z,10828
2018-12-14T10:15:04.548Z,12548
2018-12-14T10:16:05.289Z,13368
2018-12-14T10:17:06.486Z,13064
2018-12-14T10:18:07.341Z,11736
2018-12-14T10:19:08.166Z,11840
2018-12-14T10:20:08.885Z,10736
2018-12-14T10:21:09.606Z,10048
2018-12-14T10:22:10.317Z,10792
2018-12-14T10:23:11.337Z,12516
2018-12-14T10:24:11.988Z,13148
2018-12-14T10:25:12.969Z,13556
2018-12-14T10:26:13.672Z,13032
2018-12-14T10:27:14.386Z,12172
2018-12-14T10:28:15.350Z,10944
2018-12-14T10:29:16.872Z,9976
2018-12-14T10:30:17.734Z,9644
2018-12-14T10:31:18.470Z,9912
2018-12-14T10:32:19.173Z,10744
2018-12-14T10:33:19.976Z,11444
2018-12-14T10:34:20.622Z,11476
2018-12-14T10:35:21.436Z,11648
2018-12-14T10:36:22.149Z,9532
2018-12-14T10:37:22.857Z,10300
2018-12-14T10:38:23.612Z,11052
2018-12-14T10:39:24.324Z,11336
2018-12-14T10:40:25.041Z,10940
2018-12-14T10:41:25.765Z,10676
2018-12-14T10:42:26.479Z,9584
2018-12-14T10:43:27.197Z,7852
2018-12-14T10:44:29.878Z,7784
2018-12-14T10:45:28.642Z,7976
2018-12-14T10:46:29.351Z,9108
2018-12-14T10:47:30.566Z,10428
2018-12-14T10:48:31.284Z,10484
2018-12-14T10:49:32.002Z,9848
2018-12-14T10:50:39.247Z,9080
2018-12-14T10:51:33.825Z,7088
2018-12-14T10:52:34.616Z,8416
2018-12-14T10:53:35.317Z,8400
2018-12-14T10:54:36.241Z,7216
2018-12-14T10:55:37.134Z,8516
2018-12-14T10:56:37.952Z,7384
2018-12-14T10:57:38.661Z,7756
2018-12-14T10:58:40.364Z,7192
2018-12-14T10:59:41.584Z,6064
2018-12-14T11:00:42.487Z,6068
2018-12-14T11:01:43.845Z,7564
2018-12-14T11:02:45.782Z,6828
2018-12-14T11:03:46.987Z,5108
2018-12-14T11:04:47.703Z,5124
2018-12-14T11:05:48.459Z,5092
2018-12-14T11:06:49.174Z,5020
2018-12-14T11:07:49.883Z,4960
2018-12-14T11:08:50.704Z,5236
2018-12-14T11:09:52.004Z,6264
2018-12-14T11:10:54.314Z,5060
2018-12-14T11:11:55.356Z,4852
2018-12-14T11:12:56.074Z,4820
2018-12-14T11:13:56.799Z,4964
2018-12-14T11:14:57.526Z,5124
2018-12-14T11:15:58.237Z,5168
2018-12-14T11:16:58.955Z,5180
2018-12-14T11:17:59.677Z,4952
2018-12-14T11:19:00.439Z,4608
2018-12-14T11:20:01.161Z,4448
2018-12-14T11:21:01.872Z,4500
2018-12-14T11:22:02.685Z,4472
2018-12-14T11:23:03.887Z,4672
2018-12-14T11:24:04.915Z,4592
2018-12-14T11:25:05.634Z,4416
2018-12-14T11:26:06.343Z,4552
2018-12-14T11:27:07.114Z,6276
2018-12-14T11:28:07.817Z,5048
2018-12-14T11:29:08.538Z,5088
2018-12-14T11:30:09.244Z,5376
2018-12-14T11:31:09.965Z,6204
2018-12-14T11:32:10.739Z,7484
2018-12-14T11:33:11.449Z,6916
2018-12-14T11:34:12.177Z,7352
2018-12-14T11:35:12.884Z,5600
2018-12-14T11:36:13.612Z,5488
2018-12-14T11:37:14.321Z,6636
2018-12-14T11:38:15.087Z,5692
2018-12-14T11:39:15.803Z,5496
2018-12-14T11:40:16.529Z,5144
2018-12-14T11:41:18.595Z,7736
2018-12-14T11:42:17.965Z,7452
2018-12-14T11:43:18.728Z,6600
2018-12-14T11:44:21.353Z,9624
2018-12-14T11:45:20.161Z,8792
2018-12-14T11:46:20.868Z,8768
2018-12-14T11:47:21.597Z,9152
2018-12-14T11:48:22.415Z,9344
2018-12-14T11:49:23.139Z,11244
2018-12-14T11:50:23.864Z,14180
2018-12-14T11:51:24.580Z,15228
2018-12-14T11:52:25.296Z,13780
2018-12-14T11:53:26.076Z,11708
2018-12-14T11:54:26.791Z,10716
2018-12-14T11:55:27.518Z,12952
2018-12-14T11:56:28.235Z,9020
2018-12-14T11:57:28.965Z,8904
2018-12-14T11:58:29.682Z,8956
2018-12-14T11:59:30.383Z,9184
2018-12-14T12:00:31.097Z,9176
2018-12-14T12:01:31.810Z,9004
2018-12-14T12:02:32.533Z,8984
2018-12-14T12:03:33.249Z,8252
2018-12-14T12:04:33.974Z,7964
2018-12-14T12:05:34.982Z,8060
2018-12-14T12:06:35.696Z,7032
2018-12-14T12:07:36.402Z,7624
2018-12-14T12:08:37.116Z,7324
2018-12-14T12:09:38.083Z,8096
2018-12-14T12:10:38.796Z,7396
2018-12-14T12:11:39.522Z,6852
2018-12-14T12:12:40.235Z,6852
2018-12-14T12:13:40.986Z,6804
2018-12-14T12:14:41.697Z,6892
2018-12-14T12:15:42.416Z,6840
2018-12-14T12:16:43.135Z,6776
2018-12-14T12:17:49.374Z,5592
2018-12-14T12:18:44.563Z,5652
2018-12-14T12:19:45.427Z,6244
2018-12-14T12:20:46.150Z,6420
2018-12-14T12:21:46.859Z,6360
2018-12-14T12:22:47.605Z,6292
2018-12-14T12:23:48.322Z,6116
2018-12-14T12:24:49.046Z,6148
2018-12-14T12:25:49.763Z,5896
2018-12-14T12:26:50.485Z,5620
2018-12-14T12:27:51.194Z,5420
2018-12-14T12:28:51.908Z,5520
2018-12-14T12:29:52.625Z,5200
2018-12-14T12:30:53.433Z,5276
2018-12-14T12:31:54.165Z,4932
2018-12-14T12:32:54.863Z,5128
2018-12-14T12:33:55.589Z,5272
2018-12-14T12:34:56.299Z,4540
2018-12-14T12:35:57.114Z,4632
2018-12-14T12:36:57.832Z,5204
2018-12-14T12:37:58.551Z,5876
2018-12-14T12:38:59.292Z,6060
2018-12-14T12:40:00.005Z,5124
2018-12-14T12:41:00.727Z,4924
2018-12-14T12:42:01.448Z,5404
2018-12-14T12:43:02.155Z,6032
2018-12-14T12:44:03.033Z,6428
2018-12-14T12:45:03.750Z,6236
2018-12-14T12:46:04.821Z,6380
2018-12-14T12:47:05.573Z,6492
2018-12-14T12:48:06.273Z,5860
2018-12-14T12:49:07.094Z,5396
2018-12-14T12:50:07.838Z,5256
2018-12-14T12:51:08.553Z,5216
2018-12-14T12:52:09.708Z,5172
2018-12-14T12:53:11.081Z,5096
2018-12-14T12:54:12.334Z,4844
2018-12-14T12:55:13.055Z,4652
2018-12-14T12:56:13.766Z,4636
2018-12-14T12:57:14.481Z,4788
2018-12-14T12:58:15.197Z,5060
2018-12-14T12:59:15.920Z,5164
2018-12-14T13:00:16.629Z,5388
2018-12-14T13:01:17.343Z,5396
2018-12-14T13:02:18.093Z,5076
2018-12-14T13:03:18.799Z,5164
2018-12-14T13:04:19.515Z,5784
2018-12-14T13:05:20.233Z,6452
2018-12-14T13:06:20.947Z,6716
2018-12-14T13:07:21.661Z,6624
2018-12-14T13:08:22.377Z,6476
2018-12-14T13:09:23.095Z,5724
2018-12-14T13:10:23.875Z,5348
2018-12-14T13:11:24.606Z,5216
2018-12-14T13:12:25.323Z,5128
2018-12-14T13:13:26.041Z,4972
2018-12-14T13:14:26.757Z,5208
2018-12-14T13:15:27.473Z,5436
2018-12-14T13:16:28.242Z,5572
2018-12-14T13:17:29.208Z,5528
2018-12-14T13:18:29.921Z,5616
2018-12-14T13:19:30.653Z,5924
2018-12-14T13:20:32.303Z,5832
2018-12-14T13:21:33.154Z,5584
2018-12-14T13:22:33.959Z,5320
2018-12-14T13:23:34.676Z,5096
2018-12-14T13:24:35.407Z,4936
2018-12-14T13:25:36.119Z,4864
2018-12-14T13:26:37.293Z,4976
2018-12-14T13:27:38.069Z,5188
2018-12-14T13:28:38.962Z,5500
2018-12-14T13:29:39.674Z,5548
2018-12-14T13:30:40.389Z,5496
2018-12-14T13:31:41.201Z,5508
2018-12-14T13:32:41.920Z,5572
2018-12-14T13:33:42.644Z,5516
2018-12-14T13:34:43.632Z,5484
2018-12-14T13:35:44.358Z,5432
2018-12-14T13:36:45.068Z,5296
2018-12-14T13:37:45.789Z,4944
2018-12-14T13:38:46.491Z,4720
2018-12-14T13:39:47.209Z,4616
2018-12-14T13:40:47.931Z,4616
2018-12-14T13:41:48.669Z,4788
2018-12-14T13:42:49.358Z,4868
2018-12-14T13:43:50.092Z,4872
2018-12-14T13:44:51.511Z,4876
2018-12-14T13:45:53.052Z,4884
2018-12-14T13:46:53.252Z,4768
2018-12-14T13:47:55.125Z,4648
2018-12-14T13:49:02.616Z,4748
2018-12-14T13:49:57.994Z,4692
2018-12-14T13:50:58.720Z,4492
2018-12-14T13:51:59.442Z,4364
2018-12-14T13:53:00.289Z,4228
2018-12-14T13:54:01.021Z,4092
2018-12-14T13:55:01.743Z,3948
2018-12-14T13:56:02.458Z,3820
2018-12-14T13:57:03.276Z,3712
2018-12-14T13:58:03.994Z,3524
2018-12-14T13:59:04.784Z,3312
2018-12-14T14:00:06.504Z,3116
2018-12-14T14:01:07.522Z,2896
2018-12-14T14:02:08.238Z,2696
2018-12-14T14:03:10.304Z,2548
2018-12-14T14:04:09.727Z,2416
2018-12-14T14:05:10.472Z,2312
2018-12-14T14:06:11.182Z,2284
2018-12-14T14:07:12.000Z,2284
2018-12-14T14:08:13.136Z,2204
2018-12-14T14:09:13.921Z,2124
2018-12-14T14:10:14.631Z,2128
2018-12-14T14:11:15.354Z,2192